Time;durP1;ratioP1;P1;durP2;ratioP2;P2;SDS_P1;SDS_P2;PMS_P1;PMS_P2;Temp;Humidity;BMP_temperature;BMP_pressure;BME280_temperature;BME280_humidity;BME280_pressure;Samples;Min_cycle;Max_cycle;Signal;HPM_P1;HPM_P2
2022/07/02 00:00:25;;;;;;;3.43;1.93;;;14.10;99.70;;;;;;4993111;28;20451;-67
2022/07/02 00:02:53;;;;;;;4.93;2.10;;;14.10;99.80;;;;;;4992316;28;20448;-67
2022/07/02 00:05:22;;;;;;;6.33;2.27;;;14.10;99.70;;;;;;4992825;28;20446;-67
2022/07/02 00:07:50;;;;;;;12.40;1.97;;;14.00;99.50;;;;;;4992516;28;20439;-67
2022/07/02 00:10:19;;;;;;;3.80;1.50;;;14.00;99.60;;;;;;4992966;28;20490;-67
2022/07/02 00:12:47;;;;;;;6.63;2.03;;;14.00;99.90;;;;;;4992390;28;20443;-67
2022/07/02 00:15:16;;;;;;;6.93;2.60;;;14.00;99.90;;;;;;4992520;28;20483;-67
2022/07/02 00:17:44;;;;;;;7.97;2.70;;;14.00;99.90;;;;;;4992538;28;20845;-67
2022/07/02 00:20:12;;;;;;;8.07;2.73;;;14.00;99.60;;;;;;4992290;28;20817;-67
2022/07/02 00:22:40;;;;;;;5.90;1.70;;;13.90;99.90;;;;;;4992215;28;20844;-67
2022/07/02 00:25:08;;;;;;;14.93;2.00;;;13.90;99.90;;;;;;4992666;28;20449;-67
2022/07/02 00:27:37;;;;;;;3.30;1.30;;;13.90;99.90;;;;;;4992521;28;20822;-67
2022/07/02 00:30:06;;;;;;;16.90;2.47;;;14.00;99.90;;;;;;4992382;28;20479;-67
2022/07/02 00:32:37;;;;;;;2.43;1.63;;;13.90;99.90;;;;;;4992512;28;20872;-67
2022/07/02 00:35:07;;;;;;;2.20;1.47;;;13.90;99.90;;;;;;4992803;28;20566;-67
2022/07/02 00:37:35;;;;;;;21.43;4.33;;;13.90;99.90;;;;;;4992900;28;20446;-67
2022/07/02 00:40:02;;;;;;;20.00;4.50;;;14.00;99.90;;;;;;4992721;28;21014;-67
2022/07/02 00:42:31;;;;;;;15.30;3.53;;;13.90;99.90;;;;;;4992214;28;20451;-67
2022/07/02 00:44:59;;;;;;;18.00;3.83;;;13.90;99.90;;;;;;4992138;28;20443;-67
2022/07/02 00:47:28;;;;;;;8.33;2.07;;;13.90;99.90;;;;;;4992567;28;20541;-67
2022/07/02 00:49:56;;;;;;;12.27;2.90;;;13.80;99.90;;;;;;4992257;28;20526;-68
2022/07/02 00:52:23;;;;;;;10.60;2.20;;;13.80;99.90;;;;;;4992813;28;20514;-67
2022/07/02 00:54:51;;;;;;;12.10;2.33;;;13.80;99.90;;;;;;4994119;28;20522;-67
2022/07/02 00:57:18;;;;;;;5.50;2.23;;;13.70;99.90;;;;;;4996475;28;21043;-67
2022/07/02 00:59:45;;;;;;;10.70;2.20;;;13.70;99.90;;;;;;4996622;28;20439;-68
2022/07/02 01:02:12;;;;;;;7.43;2.47;;;13.60;99.90;;;;;;4995755;28;20439;-67
2022/07/02 01:04:41;;;;;;;4.07;2.40;;;13.60;99.90;;;;;;4995965;28;20993;-67
2022/07/02 01:07:13;;;;;;;4.93;2.10;;;13.60;99.90;;;;;;4995764;28;20454;-67
2022/07/02 01:12:28;;;;;;;3.93;1.67;;;13.50;99.90;;;;;;4996313;28;20789;-67
2022/07/02 01:14:57;;;;;;;9.80;2.00;;;13.50;99.90;;;;;;4995221;28;20479;-67
2022/07/02 01:17:25;;;;;;;2.77;1.60;;;13.60;99.90;;;;;;4996170;28;20451;-67
2022/07/02 01:19:52;;;;;;;3.00;1.60;;;13.50;99.70;;;;;;4995570;28;20443;-69
2022/07/02 01:22:23;;;;;;;6.83;1.90;;;13.50;99.90;;;;;;4995910;28;20439;-67
2022/07/02 01:24:51;;;;;;;12.77;2.80;;;13.50;99.70;;;;;;4995638;28;20532;-67
2022/07/02 01:27:20;;;;;;;9.00;3.03;;;13.40;99.50;;;;;;4995835;28;20451;-67
2022/07/02 01:29:48;;;;;;;18.10;3.20;;;13.40;99.50;;;;;;4995645;28;20521;-72
2022/07/02 01:32:15;;;;;;;9.90;2.67;;;13.30;99.30;;;;;;4994938;28;20435;-67
2022/07/02 01:34:43;;;;;;;3.30;2.57;;;13.30;99.60;;;;;;4995737;28;20562;-67
2022/07/02 01:37:12;;;;;;;37.30;4.17;;;13.30;99.90;;;;;;4995422;28;20443;-67
2022/07/02 01:39:43;;;;;;;33.17;3.57;;;13.30;99.90;;;;;;4995758;28;20439;-67
2022/07/02 01:42:11;;;;;;;24.87;4.23;;;13.20;99.80;;;;;;4995149;28;20471;-67
2022/07/02 01:44:39;;;;;;;16.27;2.50;;;13.10;99.90;;;;;;4995861;28;20435;-67
2022/07/02 01:47:10;;;;;;;5.50;1.90;;;13.00;99.90;;;;;;4995244;28;20444;-67
2022/07/02 01:49:38;;;;;;;10.53;1.80;;;13.00;99.90;;;;;;4995711;28;20448;-67
2022/07/02 01:52:07;;;;;;;8.50;2.47;;;13.00;99.90;;;;;;4994999;28;20455;-68
2022/07/02 01:54:35;;;;;;;5.97;1.87;;;12.90;99.90;;;;;;4995317;28;20545;-69
2022/07/02 01:57:07;;;;;;;10.73;2.10;;;12.90;99.90;;;;;;4995185;28;20493;-67
2022/07/02 01:59:35;;;;;;;21.87;3.03;;;12.90;99.90;;;;;;4995201;28;20444;-67
2022/07/02 02:02:02;;;;;;;7.30;1.70;;;12.90;99.90;;;;;;4994935;28;20442;-67
2022/07/02 02:04:30;;;;;;;13.77;2.10;;;12.90;99.90;;;;;;4994852;28;20443;-67
2022/07/02 02:06:58;;;;;;;4.00;1.83;;;12.90;99.90;;;;;;4994699;28;20440;-67
2022/07/02 02:09:25;;;;;;;3.90;2.00;;;12.90;99.90;;;;;;4994779;28;20546;-67
2022/07/02 02:11:52;;;;;;;3.83;2.23;;;12.90;99.70;;;;;;4994530;28;20447;-67
2022/07/02 02:14:20;;;;;;;2.00;1.30;;;12.90;99.60;;;;;;4994945;28;20483;-67
2022/07/02 02:16:48;;;;;;;2.50;1.50;;;12.90;99.60;;;;;;4994632;28;20448;-67
2022/07/02 02:19:15;;;;;;;5.10;2.30;;;12.90;99.60;;;;;;4994878;28;20440;-68
2022/07/02 02:21:42;;;;;;;3.17;1.90;;;12.80;99.30;;;;;;4994753;28;20444;-68
2022/07/02 02:24:09;;;;;;;3.07;2.00;;;12.90;99.20;;;;;;4995013;28;20451;-67
2022/07/02 02:26:36;;;;;;;4.87;2.23;;;12.90;99.10;;;;;;4994181;28;20463;-67
2022/07/02 02:29:03;;;;;;;4.30;1.77;;;12.80;98.90;;;;;;4994607;28;20459;-67
2022/07/02 02:31:32;;;;;;;6.63;2.30;;;12.80;99.10;;;;;;4994714;28;20439;-67
2022/07/02 02:33:59;;;;;;;4.30;2.17;;;12.70;99.00;;;;;;4994341;28;20440;-67
2022/07/02 02:36:26;;;;;;;6.90;2.30;;;12.70;99.30;;;;;;4994642;28;20443;-68
2022/07/02 02:38:53;;;;;;;16.10;3.37;;;12.70;99.50;;;;;;4994124;28;20946;-68
2022/07/02 02:41:20;;;;;;;13.07;2.53;;;12.80;99.70;;;;;;4994433;28;20444;-67
2022/07/02 02:43:47;;;;;;;10.93;2.70;;;12.80;99.70;;;;;;4994402;28;20443;-67
2022/07/02 02:46:14;;;;;;;17.10;3.80;;;12.70;99.80;;;;;;4994280;28;20943;-67
2022/07/02 02:48:43;;;;;;;12.93;2.90;;;12.70;99.90;;;;;;4993778;28;20454;-67
2022/07/02 02:51:14;;;;;;;9.10;2.70;;;12.70;99.90;;;;;;4994499;28;20865;-68
2022/07/02 02:53:42;;;;;;;14.63;2.73;;;12.70;99.90;;;;;;4993834;28;21037;-68
2022/07/02 02:56:10;;;;;;;8.47;2.60;;;12.70;99.90;;;;;;4974766;28;20491;-67
2022/07/02 02:58:37;;;;;;;9.80;2.60;;;12.70;99.90;;;;;;4975028;28;20602;-67
2022/07/02 03:01:04;;;;;;;6.70;2.30;;;12.80;99.90;;;;;;4993503;28;20460;-67
2022/07/02 03:03:31;;;;;;;8.03;2.53;;;12.80;99.90;;;;;;4994217;28;20463;-67
2022/07/02 03:06:00;;;;;;;5.70;2.70;;;12.80;99.90;;;;;;4993783;28;20462;-67
2022/07/02 03:08:27;;;;;;;7.77;2.47;;;12.80;99.90;;;;;;4994123;28;20448;-67
2022/07/02 03:10:54;;;;;;;6.60;2.80;;;12.80;99.90;;;;;;4993596;28;20792;-67
2022/07/02 03:13:21;;;;;;;9.63;2.33;;;12.80;99.90;;;;;;4994030;28;20439;-67
2022/07/02 03:15:48;;;;;;;12.80;2.10;;;12.80;99.90;;;;;;4993320;28;20494;-67
2022/07/02 03:18:16;;;;;;;7.13;2.10;;;12.80;99.90;;;;;;4992876;28;20954;-67
2022/07/02 03:20:43;;;;;;;6.63;2.17;;;12.80;99.90;;;;;;4993295;28;20450;-67
2022/07/02 03:23:12;;;;;;;10.07;2.53;;;12.80;99.90;;;;;;4993714;28;20482;-67
2022/07/02 03:25:39;;;;;;;5.80;1.60;;;12.70;99.90;;;;;;4993102;28;20459;-67
2022/07/02 03:28:06;;;;;;;8.70;2.10;;;12.70;99.90;;;;;;4993905;28;20444;-67
2022/07/02 03:30:33;;;;;;;5.20;1.40;;;12.70;99.90;;;;;;4993782;28;20474;-67
2022/07/02 03:33:00;;;;;;;5.60;1.63;;;12.70;99.80;;;;;;4993452;28;20451;-67
2022/07/02 03:35:27;;;;;;;7.23;1.83;;;12.60;99.70;;;;;;4993098;28;20511;-67
2022/07/02 03:37:54;;;;;;;2.77;1.73;;;12.60;99.90;;;;;;4993541;28;20531;-68
2022/07/02 03:40:22;;;;;;;10.50;2.03;;;12.70;99.80;;;;;;4993261;28;20455;-67
2022/07/02 03:42:49;;;;;;;5.73;1.73;;;12.70;99.80;;;;;;4993487;28;20439;-67
2022/07/02 03:45:16;;;;;;;11.80;2.07;;;12.70;99.70;;;;;;4992950;28;20471;-67
2022/07/02 03:47:43;;;;;;;13.90;2.57;;;12.70;99.70;;;;;;4993172;28;20818;-67
2022/07/02 03:50:10;;;;;;;7.60;3.03;;;12.70;99.80;;;;;;4992978;28;20444;-67
2022/07/02 03:52:39;;;;;;;6.63;2.50;;;12.70;99.90;;;;;;4993622;28;20435;-67
2022/07/02 03:55:07;;;;;;;4.60;2.13;;;12.70;99.90;;;;;;4992881;28;20566;-67
2022/07/02 03:57:36;;;;;;;5.73;2.07;;;12.70;99.90;;;;;;4993114;28;20439;-67
2022/07/02 04:00:04;;;;;;;3.60;1.50;;;12.80;99.90;;;;;;4993039;28;20885;-67
2022/07/02 04:02:31;;;;;;;3.70;1.70;;;12.80;99.90;;;;;;4993560;28;20435;-67
2022/07/02 04:04:58;;;;;;;6.40;1.83;;;12.90;99.90;;;;;;4993046;28;20803;-67
2022/07/02 04:07:25;;;;;;;6.20;1.73;;;12.90;99.90;;;;;;4993390;28;20451;-68
2022/07/02 04:09:52;;;;;;;12.57;1.57;;;12.90;99.90;;;;;;4993017;28;20935;-67
2022/07/02 04:12:19;;;;;;;5.60;1.40;;;12.90;99.90;;;;;;4992546;28;20443;-68
2022/07/02 04:14:48;;;;;;;7.80;1.90;;;13.00;99.90;;;;;;4993179;28;20482;-67
2022/07/02 04:17:15;;;;;;;7.53;1.77;;;12.90;99.90;;;;;;4992943;28;20440;-67
2022/07/02 04:19:42;;;;;;;5.53;1.50;;;12.90;99.90;;;;;;4993089;28;20506;-67
2022/07/02 04:22:09;;;;;;;4.73;1.70;;;12.90;99.90;;;;;;4992847;28;20451;-67
2022/07/02 04:24:36;;;;;;;3.97;1.43;;;12.90;99.90;;;;;;4993176;28;20455;-68
2022/07/02 04:27:04;;;;;;;10.97;2.67;;;13.00;99.90;;;;;;4992802;28;20436;-67
2022/07/02 04:29:31;;;;;;;22.10;2.17;;;13.00;99.90;;;;;;4993146;28;20467;-67
2022/07/02 04:32:00;;;;;;;22.13;2.27;;;13.10;99.90;;;;;;4992662;28;21244;-67
2022/07/02 04:34:27;;;;;;;10.80;2.00;;;13.20;99.90;;;;;;4992925;28;20454;-67
2022/07/02 04:36:54;;;;;;;14.30;2.00;;;13.20;99.90;;;;;;4992762;28;20439;-67
2022/07/02 04:39:21;;;;;;;18.07;2.60;;;13.20;99.90;;;;;;4993100;28;20447;-67
2022/07/02 04:41:48;;;;;;;10.23;2.40;;;13.30;99.90;;;;;;4992618;28;20456;-67
2022/07/02 04:44:15;;;;;;;14.03;1.87;;;13.30;99.90;;;;;;4993219;28;20466;-67
2022/07/02 04:46:43;;;;;;;21.27;2.90;;;13.30;99.60;;;;;;4992785;28;20432;-67
2022/07/02 04:49:11;;;;;;;20.63;2.50;;;13.30;99.90;;;;;;4993092;28;20530;-67
2022/07/02 04:51:38;;;;;;;9.03;1.80;;;13.30;99.90;;;;;;4992779;28;20513;-68
2022/07/02 04:54:05;;;;;;;8.30;2.23;;;13.30;99.80;;;;;;4993184;28;20847;-67
2022/07/02 04:56:32;;;;;;;30.10;3.20;;;13.30;99.90;;;;;;4992805;28;20483;-66
2022/07/02 04:58:59;;;;;;;3.93;1.63;;;13.40;99.90;;;;;;4992969;28;20498;-69
2022/07/02 05:01:28;;;;;;;2.57;1.63;;;13.40;99.90;;;;;;4992416;28;20443;-67
2022/07/02 05:03:55;;;;;;;15.77;2.07;;;13.50;99.90;;;;;;4992555;28;20443;-67
2022/07/02 05:06:24;;;;;;;2.63;1.07;;;13.60;99.90;;;;;;4992479;28;20442;-67
2022/07/02 05:08:51;;;;;;;2.60;1.60;;;13.70;99.90;;;;;;4992620;28;20440;-67
2022/07/02 05:11:19;;;;;;;10.47;2.00;;;13.80;99.90;;;;;;4992324;28;20446;-67
2022/07/02 05:13:47;;;;;;;12.07;1.73;;;14.00;99.80;;;;;;4992780;28;20530;-67
2022/07/02 05:16:14;;;;;;;3.13;1.83;;;13.90;99.10;;;;;;4992346;28;20479;-67
2022/07/02 05:18:41;;;;;;;6.63;2.00;;;13.70;99.10;;;;;;4992759;28;20451;-67
2022/07/02 05:21:08;;;;;;;2.57;1.80;;;13.80;99.80;;;;;;4992147;28;20531;-66
2022/07/02 05:23:36;;;;;;;4.40;1.80;;;13.90;99.90;;;;;;4992935;28;20803;-68
2022/07/02 05:26:04;;;;;;;11.00;2.27;;;14.00;99.50;;;;;;4992367;28;20444;-67
2022/07/02 05:28:31;;;;;;;6.40;1.80;;;14.10;98.80;;;;;;4992234;28;20479;-68
2022/07/02 05:30:58;;;;;;;3.53;1.53;;;14.00;98.10;;;;;;4992023;28;20476;-67
2022/07/02 05:33:25;;;;;;;3.50;1.30;;;14.10;98.30;;;;;;4992482;28;20435;-68
2022/07/02 05:35:53;;;;;;;6.03;2.20;;;14.10;98.50;;;;;;4992318;28;20551;-67
2022/07/02 05:38:20;;;;;;;4.27;1.63;;;14.30;98.20;;;;;;4992184;28;20477;-68
2022/07/02 05:40:48;;;;;;;5.97;1.60;;;14.30;97.90;;;;;;4993903;28;20585;-68
2022/07/02 05:43:15;;;;;;;6.47;1.50;;;14.40;97.70;;;;;;4996204;28;20439;-69
2022/07/02 05:45:42;;;;;;;5.00;1.30;;;14.50;98.00;;;;;;4994743;28;20435;-68
2022/07/02 05:48:10;;;;;;;2.40;1.70;;;14.60;97.90;;;;;;4996045;28;20440;-67
2022/07/02 05:50:37;;;;;;;3.57;1.53;;;14.80;97.70;;;;;;4995673;28;20443;-68
2022/07/02 05:53:04;;;;;;;2.30;1.20;;;14.90;97.50;;;;;;4995820;28;20932;-68
2022/07/02 05:55:31;;;;;;;5.10;1.80;;;15.00;97.70;;;;;;4995361;28;21039;-67
2022/07/02 05:58:00;;;;;;;6.57;1.70;;;15.10;97.70;;;;;;4995874;28;20950;-69
2022/07/02 06:00:27;;;;;;;2.57;1.40;;;15.20;97.50;;;;;;4994630;28;20448;-68
2022/07/02 06:02:54;;;;;;;2.73;1.70;;;15.30;97.60;;;;;;4995668;28;20462;-68
2022/07/02 06:08:06;;;;;;;2.27;1.60;;;15.50;98.10;;;;;;4993818;28;20559;-68
2022/07/02 06:10:33;;;;;;;2.00;1.17;;;15.60;98.00;;;;;;4993070;28;20494;-68
2022/07/02 06:13:02;;;;;;;1.93;1.27;;;15.80;97.50;;;;;;4993523;28;20454;-67
2022/07/02 06:15:29;;;;;;;1.90;1.20;;;15.90;97.00;;;;;;4992979;28;20479;-67
2022/07/02 06:18:01;;;;;;;2.00;1.10;;;16.00;97.00;;;;;;4993819;28;20444;-68
2022/07/02 06:20:29;;;;;;;2.40;1.10;;;16.10;96.70;;;;;;4992419;28;20440;-68
2022/07/02 06:22:56;;;;;;;1.80;1.07;;;16.20;96.60;;;;;;4993322;28;20436;-68
2022/07/02 06:25:23;;;;;;;2.07;1.07;;;16.30;96.70;;;;;;4993664;28;20448;-68
2022/07/02 06:27:51;;;;;;;3.30;1.30;;;16.50;96.50;;;;;;4993583;28;21005;-67
2022/07/02 06:30:20;;;;;;;2.20;1.20;;;16.70;96.70;;;;;;4992716;28;20471;-67
2022/07/02 06:32:48;;;;;;;2.40;1.40;;;16.90;96.70;;;;;;4993425;28;20443;-68
2022/07/02 06:35:16;;;;;;;1.90;1.17;;;17.00;96.80;;;;;;4993142;28;20443;-67
2022/07/02 06:37:44;;;;;;;3.00;1.10;;;17.10;96.40;;;;;;4993207;28;20448;-69
2022/07/02 06:40:11;;;;;;;2.53;1.10;;;17.10;96.30;;;;;;4989567;28;20494;-67
2022/07/02 06:42:38;;;;;;;1.93;1.00;;;17.10;96.10;;;;;;4992268;28;21758;-71
2022/07/02 06:45:07;;;;;;;1.93;1.00;;;17.10;96.00;;;;;;4993059;28;20490;-67
2022/07/02 06:47:40;;;;;;;2.07;0.97;;;17.10;96.10;;;;;;4993007;28;20444;-67
2022/07/02 06:50:09;;;;;;;2.00;0.97;;;17.00;95.60;;;;;;4993240;28;20498;-70
2022/07/02 06:52:36;;;;;;;1.77;0.90;;;17.00;95.80;;;;;;4991026;28;20443;-68
2022/07/02 06:55:04;;;;;;;2.13;1.30;;;16.90;95.60;;;;;;4992393;28;20444;-67
2022/07/02 06:57:32;;;;;;;2.00;1.03;;;16.80;96.50;;;;;;4992191;28;20510;-67
2022/07/02 07:00:00;;;;;;;2.37;1.53;;;16.90;97.10;;;;;;4992950;28;20440;-68
2022/07/02 07:02:27;;;;;;;3.47;1.30;;;17.00;97.60;;;;;;4992571;28;20439;-68
2022/07/02 07:04:56;;;;;;;2.00;1.00;;;17.00;97.70;;;;;;4992811;28;20510;-67
2022/07/02 07:07:27;;;;;;;1.70;0.90;;;17.10;98.00;;;;;;4991403;28;20447;-72
2022/07/02 07:09:54;;;;;;;2.33;0.90;;;17.10;98.70;;;;;;4993096;28;20436;-67
2022/07/02 07:12:21;;;;;;;2.93;1.00;;;17.20;99.50;;;;;;4992195;28;20448;-67
2022/07/02 07:14:49;;;;;;;1.90;1.10;;;17.30;99.10;;;;;;4992623;28;20447;-67
2022/07/02 07:17:17;;;;;;;2.53;1.23;;;17.40;99.10;;;;;;4991452;28;20486;-70
2022/07/02 07:19:44;;;;;;;2.50;1.00;;;17.40;98.90;;;;;;4992428;28;20436;-69
2022/07/02 07:22:13;;;;;;;2.30;1.23;;;17.50;98.80;;;;;;4991567;28;20440;-67
2022/07/02 07:24:40;;;;;;;2.40;1.00;;;17.60;98.80;;;;;;4992297;28;20480;-68
2022/07/02 07:27:08;;;;;;;1.87;0.70;;;17.60;98.80;;;;;;4992201;28;20938;-68
2022/07/02 07:29:35;;;;;;;1.80;0.70;;;17.70;98.70;;;;;;4992038;28;20475;-68
2022/07/02 07:32:03;;;;;;;1.80;0.90;;;17.80;98.40;;;;;;4992018;28;20446;-67
2022/07/02 07:34:30;;;;;;;1.80;0.70;;;17.80;98.40;;;;;;4992474;28;20555;-67
2022/07/02 07:36:58;;;;;;;1.90;0.97;;;17.90;97.90;;;;;;4991535;28;20538;-67
2022/07/02 07:39:27;;;;;;;2.00;0.83;;;18.00;97.40;;;;;;4991743;28;20448;-67
2022/07/02 07:41:54;;;;;;;1.60;0.73;;;18.10;94.90;;;;;;4990806;28;20540;-68
2022/07/02 07:44:21;;;;;;;2.00;0.80;;;18.10;95.10;;;;;;4992040;28;20479;-67
2022/07/02 07:46:48;;;;;;;1.80;0.73;;;18.20;95.40;;;;;;4991890;28;20435;-69
2022/07/02 07:49:16;;;;;;;2.90;0.77;;;18.30;94.30;;;;;;4992100;28;20439;-67
2022/07/02 07:51:43;;;;;;;1.50;0.60;;;18.40;93.30;;;;;;4991978;28;20436;-67
2022/07/02 07:54:11;;;;;;;2.83;0.60;;;18.50;93.60;;;;;;4992191;28;20432;-67
2022/07/02 07:56:41;;;;;;;2.13;0.80;;;18.50;93.40;;;;;;4990447;28;20511;-68
2022/07/02 07:59:09;;;;;;;1.70;0.80;;;18.60;93.20;;;;;;4990255;28;20440;-67
2022/07/02 08:01:36;;;;;;;2.20;0.90;;;18.70;93.30;;;;;;4990867;28;20450;-67
2022/07/02 08:04:03;;;;;;;2.07;0.83;;;18.80;94.00;;;;;;4991590;28;20486;-67
2022/07/02 08:06:30;;;;;;;3.67;0.90;;;18.90;93.30;;;;;;4990826;28;20456;-67
2022/07/02 08:08:59;;;;;;;1.70;0.77;;;19.00;93.10;;;;;;4991921;28;20711;-67
2022/07/02 08:11:27;;;;;;;1.80;0.80;;;19.10;92.70;;;;;;4991208;28;20439;-67
2022/07/02 08:13:55;;;;;;;2.00;0.80;;;19.30;92.80;;;;;;4991391;28;20440;-68
2022/07/02 08:16:23;;;;;;;3.23;0.73;;;19.40;92.00;;;;;;4990738;28;20490;-67
2022/07/02 08:18:50;;;;;;;1.70;0.70;;;19.50;93.00;;;;;;4991338;28;20950;-67
2022/07/02 08:21:18;;;;;;;1.87;0.93;;;19.60;92.70;;;;;;4991266;28;20448;-67
2022/07/02 08:23:45;;;;;;;1.70;0.90;;;19.70;92.00;;;;;;4991207;28;20443;-67
2022/07/02 08:26:12;;;;;;;1.93;0.70;;;19.70;91.80;;;;;;4990787;28;20463;-67
2022/07/02 08:28:40;;;;;;;1.60;0.67;;;19.80;90.10;;;;;;4991462;28;20576;-67
2022/07/02 08:31:08;;;;;;;1.87;0.67;;;20.00;91.00;;;;;;4990022;28;20451;-67
2022/07/02 08:33:36;;;;;;;1.80;0.60;;;20.10;91.20;;;;;;4991281;28;20448;-68
2022/07/02 08:36:03;;;;;;;2.53;0.70;;;20.20;90.80;;;;;;4991163;28;20982;-67
2022/07/02 08:38:30;;;;;;;1.60;0.70;;;20.30;87.80;;;;;;4990106;28;20539;-67
2022/07/02 08:40:57;;;;;;;1.60;0.60;;;20.40;89.20;;;;;;4991399;28;20498;-68
2022/07/02 08:43:27;;;;;;;1.80;0.60;;;20.40;84.50;;;;;;4990610;28;20521;-67
2022/07/02 08:45:55;;;;;;;1.90;0.70;;;20.50;85.30;;;;;;4991623;28;20526;-67
2022/07/02 08:48:27;;;;;;;2.63;0.60;;;20.60;86.40;;;;;;4990306;28;20458;-66
2022/07/02 08:50:57;;;;;;;2.17;1.07;;;20.70;85.60;;;;;;4991283;28;20439;-66
2022/07/02 08:53:24;;;;;;;1.77;0.77;;;20.80;84.70;;;;;;4990923;28;20538;-67
2022/07/02 08:55:52;;;;;;;1.67;0.70;;;20.90;84.80;;;;;;4991363;28;20451;-67
2022/07/02 08:58:20;;;;;;;1.50;0.60;;;21.00;83.60;;;;;;4990946;28;20446;-68
2022/07/02 09:00:48;;;;;;;1.50;0.60;;;21.10;81.50;;;;;;4996052;28;20459;-68
2022/07/02 09:03:22;;;;;;;1.60;0.70;;;21.10;83.00;;;;;;4989612;28;20851;-67
2022/07/02 09:05:52;;;;;;;1.70;0.70;;;21.20;81.40;;;;;;4988291;28;20954;-67
2022/07/02 09:08:22;;;;;;;1.77;0.60;;;21.30;82.00;;;;;;4992519;28;20794;-68
2022/07/02 09:10:51;;;;;;;1.60;0.60;;;21.30;80.50;;;;;;4994103;28;20487;-67
2022/07/02 09:13:19;;;;;;;1.60;0.60;;;21.40;79.30;;;;;;4995717;28;20495;-68
2022/07/02 09:15:47;;;;;;;1.70;0.70;;;21.50;79.80;;;;;;4989810;28;21007;-68
2022/07/02 09:18:14;;;;;;;1.80;0.80;;;21.60;80.80;;;;;;5000792;28;20490;-68
2022/07/02 09:20:41;;;;;;;2.63;0.73;;;21.70;81.20;;;;;;4997991;28;21013;-67
2022/07/02 09:23:19;;;;;;;1.80;0.80;;;21.80;80.10;;;;;;4992071;28;20499;-68
2022/07/02 09:25:47;;;;;;;1.60;0.80;;;21.90;80.20;;;;;;4998265;28;21004;-68
2022/07/02 09:28:16;;;;;;;2.87;0.80;;;21.90;81.80;;;;;;4992754;28;20445;-69
2022/07/02 09:30:48;;;;;;;1.60;0.70;;;22.00;80.50;;;;;;4997130;28;20468;-68
2022/07/02 09:33:31;;;;;;;1.60;0.70;;;22.10;76.90;;;;;;4988946;28;20919;-68
2022/07/02 09:35:59;;;;;;;2.47;0.87;;;22.20;79.60;;;;;;4990866;28;20935;-68
2022/07/02 09:38:28;;;;;;;1.80;0.77;;;22.30;79.00;;;;;;4988391;28;20454;-67
2022/07/02 09:41:01;;;;;;;2.10;0.80;;;22.40;76.30;;;;;;4992274;28;20531;-68
2022/07/02 09:43:30;;;;;;;1.50;0.50;;;22.40;76.90;;;;;;4990357;28;20539;-68
2022/07/02 09:45:58;;;;;;;1.70;0.80;;;22.50;76.40;;;;;;5000305;28;20511;-67
2022/07/02 09:48:26;;;;;;;1.73;0.80;;;22.60;78.60;;;;;;4992517;28;20490;-70
2022/07/02 09:50:55;;;;;;;1.70;0.80;;;22.60;77.10;;;;;;4991803;28;20776;-67
2022/07/02 09:53:22;;;;;;;2.90;0.70;;;22.80;72.80;;;;;;4992099;28;20446;-68
2022/07/02 09:55:52;;;;;;;1.90;0.90;;;22.80;72.30;;;;;;4991098;28;20445;-68
2022/07/02 09:58:25;;;;;;;2.90;0.77;;;22.70;72.80;;;;;;4992775;28;20482;-68
2022/07/02 10:00:54;;;;;;;2.50;0.63;;;22.80;69.90;;;;;;4993945;28;21900;-68
2022/07/02 10:03:22;;;;;;;1.80;0.80;;;22.80;70.10;;;;;;4995238;28;20544;-67
2022/07/02 10:05:52;;;;;;;1.60;0.80;;;22.90;68.90;;;;;;4995720;28;20465;-69
2022/07/02 10:08:20;;;;;;;4.13;0.87;;;23.00;70.10;;;;;;4993193;28;20450;-68
2022/07/02 10:10:48;;;;;;;2.57;0.63;;;23.00;69.50;;;;;;4992481;28;21381;-68
2022/07/02 10:13:18;;;;;;;1.70;0.70;;;23.00;72.80;;;;;;4993239;28;20438;-68
2022/07/02 10:15:52;;;;;;;1.63;0.70;;;23.10;70.10;;;;;;4994965;28;20443;-70
2022/07/02 10:18:20;;;;;;;1.70;0.80;;;23.20;67.90;;;;;;4995984;28;20888;-68
2022/07/02 10:20:49;;;;;;;1.83;0.90;;;23.30;68.00;;;;;;4995021;28;20502;-69
2022/07/02 10:23:17;;;;;;;1.87;0.73;;;23.30;66.70;;;;;;4994162;28;20533;-67
2022/07/02 10:25:45;;;;;;;2.00;1.10;;;23.40;63.70;;;;;;4992221;28;20509;-69
2022/07/02 10:28:12;;;;;;;2.20;0.70;;;23.40;67.80;;;;;;4990911;28;20455;-68
2022/07/02 10:30:42;;;;;;;1.60;0.70;;;23.40;68.40;;;;;;4991948;28;20479;-69
2022/07/02 10:33:20;;;;;;;3.80;0.67;;;23.50;66.60;;;;;;4991075;28;20476;-67
2022/07/02 10:35:49;;;;;;;1.50;0.50;;;23.50;69.80;;;;;;4990634;28;20447;-68
2022/07/02 10:38:27;;;;;;;1.60;0.60;;;23.50;66.90;;;;;;4993845;28;20581;-68
2022/07/02 10:40:54;;;;;;;1.73;0.70;;;23.60;66.30;;;;;;4988696;28;20447;-67
2022/07/02 10:43:21;;;;;;;1.60;0.80;;;23.60;68.00;;;;;;4989931;28;20446;-68
2022/07/02 10:46:01;;;;;;;1.70;0.70;;;23.60;65.90;;;;;;4992952;28;20473;-68
2022/07/02 10:48:29;;;;;;;2.00;0.83;;;23.60;67.10;;;;;;4991107;28;20542;-69
2022/07/02 10:50:58;;;;;;;1.80;0.70;;;23.60;69.30;;;;;;4990762;28;20938;-68
2022/07/02 10:53:27;;;;;;;1.70;0.70;;;23.70;66.70;;;;;;4990477;28;20478;-68
2022/07/02 10:56:02;;;;;;;1.97;0.70;;;23.70;65.60;;;;;;4991785;28;20443;-67
2022/07/02 10:58:32;;;;;;;1.70;0.60;;;23.80;65.40;;;;;;4989621;28;20479;-67
2022/07/02 11:01:12;;;;;;;1.70;0.70;;;23.80;66.10;;;;;;4990906;28;20455;-68
2022/07/02 11:03:39;;;;;;;3.00;0.80;;;23.80;67.40;;;;;;4993571;28;21770;-68
2022/07/02 11:06:15;;;;;;;1.60;0.60;;;23.90;65.80;;;;;;5000894;28;20455;-71
2022/07/02 11:08:50;;;;;;;5.20;0.80;;;23.90;66.10;;;;;;4994770;28;20438;-67
2022/07/02 11:11:34;;;;;;;3.03;0.80;;;24.00;66.10;;;;;;4988689;28;20446;-67
2022/07/02 11:14:05;;;;;;;6.60;0.90;;;24.00;65.90;;;;;;4993918;28;20447;-67
2022/07/02 11:16:37;;;;;;;4.63;0.80;;;24.10;66.10;;;;;;4997834;28;20452;-68
2022/07/02 11:19:05;;;;;;;1.90;1.00;;;24.10;66.50;;;;;;4999010;28;20509;-68
2022/07/02 11:21:33;;;;;;;2.70;0.63;;;24.20;68.60;;;;;;4994123;28;20443;-68
2022/07/02 11:24:01;;;;;;;1.97;0.80;;;24.20;65.70;;;;;;4991178;28;21128;-68
2022/07/02 11:26:29;;;;;;;1.57;0.60;;;24.30;66.50;;;;;;4999814;28;20486;-68
2022/07/02 11:29:03;;;;;;;2.10;0.70;;;24.40;64.70;;;;;;4988842;28;20550;-68
2022/07/02 11:31:31;;;;;;;2.00;0.87;;;24.40;67.80;;;;;;4986420;28;20909;-67
2022/07/02 11:34:00;;;;;;;2.23;1.13;;;24.50;64.80;;;;;;4995063;28;20447;-68
2022/07/02 11:36:27;;;;;;;3.70;0.80;;;24.50;63.20;;;;;;4988902;28;20455;-68
2022/07/02 11:38:56;;;;;;;3.10;1.00;;;24.40;64.10;;;;;;4993820;28;20991;-67
2022/07/02 11:41:24;;;;;;;2.97;1.00;;;24.50;64.20;;;;;;4992137;28;20977;-67
2022/07/02 11:43:53;;;;;;;1.90;0.80;;;24.40;65.00;;;;;;4993634;28;20537;-68
2022/07/02 11:46:22;;;;;;;1.73;0.90;;;24.50;63.50;;;;;;4995828;28;20439;-67
2022/07/02 11:48:50;;;;;;;3.60;1.00;;;24.50;62.20;;;;;;4991669;28;20931;-68
2022/07/02 11:51:20;;;;;;;3.93;0.80;;;24.40;62.20;;;;;;4988847;28;20506;-67
2022/07/02 11:53:58;;;;;;;1.70;0.70;;;24.50;62.00;;;;;;4989868;28;20540;-67
2022/07/02 11:56:31;;;;;;;2.00;0.83;;;24.40;62.30;;;;;;4999725;28;20431;-67
2022/07/02 11:58:58;;;;;;;2.27;0.80;;;24.50;65.20;;;;;;4987031;28;21005;-68
2022/07/02 12:01:29;;;;;;;3.40;1.00;;;24.40;62.70;;;;;;4989539;28;20456;-68
2022/07/02 12:03:57;;;;;;;5.43;1.17;;;24.50;66.00;;;;;;4990001;28;20907;-68
2022/07/02 12:06:27;;;;;;;2.50;0.90;;;24.60;66.70;;;;;;4989324;28;21309;-68
2022/07/02 12:08:56;;;;;;;2.00;0.80;;;24.60;65.70;;;;;;4994985;28;20451;-68
2022/07/02 12:11:24;;;;;;;2.20;1.07;;;24.60;64.90;;;;;;4995016;28;20462;-68
2022/07/02 12:13:55;;;;;;;2.00;1.00;;;24.60;65.00;;;;;;4989513;28;20447;-68
2022/07/02 12:16:24;;;;;;;1.83;0.97;;;24.70;66.20;;;;;;4991336;28;20440;-67
2022/07/02 12:19:04;;;;;;;1.60;0.70;;;24.60;65.60;;;;;;4989848;28;20522;-68
2022/07/02 12:21:36;;;;;;;2.57;0.87;;;24.70;64.80;;;;;;4990322;28;21013;-68
2022/07/02 12:24:06;;;;;;;4.30;2.03;;;24.70;62.50;;;;;;4994432;28;20440;-73
2022/07/02 12:26:34;;;;;;;2.27;0.90;;;24.80;62.00;;;;;;4989766;28;20434;-68
2022/07/02 12:31:53;;;;;;;2.20;0.80;;;24.70;64.50;;;;;;4989963;28;20447;-69
2022/07/02 12:34:23;;;;;;;4.50;1.40;;;24.80;62.50;;;;;;4995978;28;20527;-68
2022/07/02 12:36:57;;;;;;;3.07;1.23;;;24.70;64.30;;;;;;4991573;28;20443;-68
2022/07/02 12:39:38;;;;;;;4.17;2.53;;;24.70;62.50;;;;;;4994660;28;20490;-67
2022/07/02 12:42:18;;;;;;;4.10;1.03;;;24.70;63.50;;;;;;4995226;28;20505;-67
2022/07/02 12:44:59;;;;;;;4.57;1.40;;;24.70;61.30;;;;;;4989501;28;20451;-68
2022/07/02 12:47:31;;;;;;;1.90;0.80;;;24.80;64.90;;;;;;4991638;28;20522;-69
2022/07/02 12:50:01;;;;;;;1.70;0.90;;;24.80;67.60;;;;;;4994930;28;20490;-68
2022/07/02 12:52:31;;;;;;;2.17;1.10;;;24.90;64.40;;;;;;4993076;28;20784;-68
2022/07/02 12:55:00;;;;;;;1.90;0.83;;;24.90;63.00;;;;;;4992860;28;20447;-67
2022/07/02 12:57:28;;;;;;;5.33;0.80;;;24.80;62.60;;;;;;4992823;28;20614;-68
2022/07/02 12:59:55;;;;;;;1.97;0.97;;;24.80;64.50;;;;;;4994443;28;20456;-68